Time;durP1;ratioP1;P1;durP2;ratioP2;P2;SDS_P1;SDS_P2;PMS_P1;PMS_P2;Temp;Humidity;BMP_temperature;BMP_pressure;BME280_temperature;BME280_humidity;BME280_pressure;Samples;Min_cycle;Max_cycle;Signal;HPM_P1;HPM_P2
2022/07/20 00:00:21;;;;;;;7.00;3.05;;;;;;;-141.50;100.00;63355.56;5023867;28;20046;-80
2022/07/20 00:02:47;;;;;;;7.32;3.03;;;;;;;-141.50;100.00;63355.56;5021459;28;20684;-80
2022/07/20 00:05:14;;;;;;;10.10;3.50;;;;;;;-141.50;100.00;63355.56;5022240;28;20053;-80
2022/07/20 00:07:41;;;;;;;8.90;3.15;;;;;;;-141.50;100.00;63355.56;5022663;28;20053;-79
2022/07/20 00:12:56;;;;;;;8.30;2.90;;;;;;;-141.50;100.00;63355.56;5021405;28;20074;-80
2022/07/20 00:15:22;;;;;;;7.18;3.22;;;;;;;-141.50;100.00;63355.56;5023022;28;20061;-80
2022/07/20 00:17:49;;;;;;;13.55;3.40;;;;;;;-141.50;100.00;63355.56;5024322;28;20073;-80
2022/07/20 00:20:15;;;;;;;8.75;3.08;;;;;;;-141.50;100.00;63355.56;5024019;28;20046;-80
2022/07/20 00:22:42;;;;;;;6.13;2.92;;;;;;;-141.50;100.00;63355.56;5022663;28;20049;-80
2022/07/20 00:25:08;;;;;;;7.13;3.25;;;;;;;-141.50;100.00;63355.56;5023297;28;20049;-79
2022/07/20 00:27:35;;;;;;;9.68;3.00;;;;;;;-141.50;100.00;63355.56;5023052;28;20127;-80
2022/07/20 00:30:03;;;;;;;8.52;3.60;;;;;;;-141.50;100.00;63355.56;5023518;28;20065;-80
2022/07/20 00:32:29;;;;;;;9.85;3.17;;;;;;;-141.50;100.00;63355.56;5021154;28;20112;-79
2022/07/20 00:34:56;;;;;;;9.25;3.17;;;;;;;-141.50;100.00;63355.56;5022276;28;20052;-79
2022/07/20 00:37:27;;;;;;;7.60;3.20;;;;;;;-141.50;100.00;63355.56;5020820;28;20092;-79
2022/07/20 00:39:54;;;;;;;12.63;3.55;;;;;;;-141.50;100.00;63355.56;5029549;28;20042;-80
2022/07/20 00:42:24;;;;;;;7.43;3.40;;;;;;;-141.50;100.00;63355.56;5019739;28;20058;-80
2022/07/20 00:44:50;;;;;;;8.52;3.15;;;;;;;-141.50;100.00;63355.56;5005251;28;20050;-79
2022/07/20 00:47:17;;;;;;;9.75;3.22;;;;;;;-141.50;100.00;63355.56;5022906;28;20059;-78
2022/07/20 00:49:44;;;;;;;7.03;3.00;;;;;;;-141.50;100.00;63355.56;5005754;28;20089;-80
2022/07/20 00:52:11;;;;;;;9.55;3.53;;;;;;;-141.50;100.00;63355.56;5021232;28;20058;-80
2022/07/20 00:54:55;;;;;;;6.03;3.17;;;;;;;-141.50;100.00;63355.56;5027741;28;20057;-78
2022/07/20 00:57:29;;;;;;;9.57;3.15;;;;;;;-141.50;100.00;63355.56;5025243;28;20281;-80
2022/07/20 00:59:55;;;;;;;8.95;3.20;;;;;;;-141.50;100.00;63355.56;5018976;28;20061;-80
2022/07/20 01:02:22;;;;;;;7.97;3.08;;;;;;;-141.50;100.00;63355.56;5006462;28;20066;-81
2022/07/20 01:04:51;;;;;;;7.18;3.17;;;;;;;-141.50;100.00;63355.56;5037813;28;20069;-79
2022/07/20 01:07:18;;;;;;;6.50;3.22;;;;;;;-141.50;100.00;63355.56;5040696;28;20062;-78
2022/07/20 01:09:45;;;;;;;7.97;3.30;;;;;;;-141.50;100.00;63355.56;5041760;28;20049;-79
2022/07/20 01:12:12;;;;;;;6.88;3.08;;;;;;;-141.50;100.00;63355.56;5040925;28;20045;-79
2022/07/20 01:14:39;;;;;;;5.85;2.83;;;;;;;-141.50;100.00;63355.56;5042250;28;20080;-80
2022/07/20 01:17:05;;;;;;;5.32;3.03;;;;;;;-141.50;100.00;63355.56;5042627;28;20045;-79
2022/07/20 01:19:32;;;;;;;6.97;3.22;;;;;;;-141.50;100.00;63355.56;5038834;28;20053;-81
2022/07/20 01:21:59;;;;;;;6.47;3.20;;;;;;;-141.50;100.00;63355.56;5040155;28;20049;-81
2022/07/20 01:24:26;;;;;;;6.97;3.35;;;;;;;-141.50;100.00;63355.56;5039490;28;20049;-80
2022/07/20 01:26:52;;;;;;;6.65;3.03;;;;;;;-141.50;100.00;63355.56;5025484;28;20083;-79
2022/07/20 01:29:19;;;;;;;6.82;2.92;;;;;;;-141.50;100.00;63355.56;5058395;28;20081;-80
2022/07/20 01:31:47;;;;;;;8.40;3.00;;;;;;;-141.50;100.00;63355.56;5042191;28;20339;-81
2022/07/20 01:34:14;;;;;;;13.82;3.40;;;;;;;-141.50;100.00;63355.56;5041738;28;20049;-80
2022/07/20 01:36:41;;;;;;;5.40;3.00;;;;;;;-141.50;100.00;63355.56;5042381;28;20053;-80
2022/07/20 01:39:07;;;;;;;9.00;3.38;;;;;;;-141.50;100.00;63355.56;5037067;28;20080;-80
2022/07/20 01:41:34;;;;;;;8.50;3.17;;;;;;;-141.50;100.00;63355.56;5028538;28;20113;-80
2022/07/20 01:44:01;;;;;;;14.05;3.40;;;;;;;-141.50;100.00;63355.56;5020902;28;20050;-79
2022/07/20 01:46:27;;;;;;;8.02;3.13;;;;;;;-141.50;100.00;63355.56;5018962;28;20062;-80
2022/07/20 01:49:00;;;;;;;10.55;3.08;;;;;;;-141.50;100.00;63355.56;5021408;28;20181;-79
2022/07/20 01:51:26;;;;;;;8.23;3.40;;;;;;;-141.50;100.00;63355.56;5019833;28;20069;-79
2022/07/20 01:53:59;;;;;;;9.18;2.92;;;;;;;-141.50;100.00;63355.56;5020022;28;20169;-78
2022/07/20 01:56:31;;;;;;;8.45;3.15;;;;;;;-141.50;100.00;63355.56;5022566;28;20089;-79
2022/07/20 01:58:59;;;;;;;12.10;3.20;;;;;;;-141.50;100.00;63355.56;5021545;28;20099;-80
2022/07/20 02:01:26;;;;;;;8.00;3.45;;;;;;;-141.50;100.00;63355.56;5020849;28;20066;-78
2022/07/20 02:03:53;;;;;;;5.40;3.30;;;;;;;-141.50;100.00;63355.56;5021357;28;20510;-79
2022/07/20 02:06:22;;;;;;;9.13;3.70;;;;;;;-141.50;100.00;63355.56;5015689;28;20085;-79
2022/07/20 02:08:49;;;;;;;6.20;3.30;;;;;;;-141.50;100.00;63355.56;5023398;28;20044;-78
2022/07/20 02:11:26;;;;;;;10.15;3.08;;;;;;;-141.50;100.00;63355.56;5033474;28;20061;-78
2022/07/20 02:13:52;;;;;;;6.70;3.28;;;;;;;-141.50;100.00;63355.56;5035653;28;20065;-79
2022/07/20 02:16:19;;;;;;;8.05;3.70;;;;;;;-141.50;100.00;63355.56;5022582;28;20060;-80
2022/07/20 02:18:50;;;;;;;8.32;3.50;;;;;;;-141.50;100.00;63355.56;5020661;28;20084;-79
2022/07/20 02:21:22;;;;;;;7.70;3.30;;;;;;;-141.50;100.00;63355.56;5016185;28;20042;-80
2022/07/20 02:23:51;;;;;;;7.07;3.58;;;;;;;-141.50;100.00;63355.56;5020355;28;20104;-81
2022/07/20 02:26:26;;;;;;;12.75;3.25;;;;;;;-141.50;100.00;63355.56;5022620;28;20077;-79
2022/07/20 02:28:53;;;;;;;5.53;3.28;;;;;;;-141.50;100.00;63355.56;5023960;28;20069;-79
2022/07/20 02:31:23;;;;;;;10.82;3.55;;;;;;;-141.50;100.00;63355.56;5022712;28;20073;-80
2022/07/20 02:34:00;;;;;;;8.20;3.42;;;;;;;-141.50;100.00;63355.56;5022469;28;20457;-79
2022/07/20 02:36:30;;;;;;;7.35;3.55;;;;;;;-141.50;100.00;63355.56;5023023;28;20053;-81
2022/07/20 02:38:56;;;;;;;7.90;3.75;;;;;;;-141.50;100.00;63355.56;5030138;28;20111;-80
2022/07/20 02:41:23;;;;;;;9.52;3.85;;;;;;;-141.50;100.00;63355.56;5021830;28;20054;-80
2022/07/20 02:43:50;;;;;;;14.18;3.58;;;;;;;-141.50;100.00;63355.56;5021658;28;20050;-80
2022/07/20 02:46:23;;;;;;;9.00;3.63;;;;;;;-141.50;100.00;63355.56;5021584;28;20056;-80
2022/07/20 02:48:50;;;;;;;7.88;3.90;;;;;;;-141.50;100.00;63355.56;5022587;28;20053;-80
2022/07/20 02:51:17;;;;;;;12.35;3.38;;;;;;;-141.50;100.00;63355.56;5021684;28;20049;-80
2022/07/20 02:53:44;;;;;;;9.75;3.60;;;;;;;-141.50;100.00;63355.56;5002043;28;20057;-80
2022/07/20 02:56:11;;;;;;;8.13;3.65;;;;;;;-141.50;100.00;63355.56;5021324;28;20054;-81
2022/07/20 02:58:37;;;;;;;8.10;3.90;;;;;;;-141.50;100.00;63355.56;5021079;28;20080;-80
2022/07/20 03:01:04;;;;;;;8.93;3.88;;;;;;;-141.50;100.00;63355.56;5020835;28;20050;-81
2022/07/20 03:03:34;;;;;;;10.50;4.25;;;;;;;-141.50;100.00;63355.56;5021722;28;20294;-80
2022/07/20 03:06:00;;;;;;;8.75;4.10;;;;;;;-141.50;100.00;63355.56;5022570;28;20077;-81
2022/07/20 03:08:27;;;;;;;9.27;4.28;;;;;;;-141.50;100.00;63355.56;5021126;28;20054;-80
2022/07/20 03:10:54;;;;;;;9.45;4.43;;;;;;;-141.50;100.00;63355.56;5019988;28;20046;-81
2022/07/20 03:13:20;;;;;;;11.77;3.90;;;;;;;-141.50;100.00;63355.56;5022069;28;20735;-80
2022/07/20 03:15:47;;;;;;;12.45;4.40;;;;;;;-141.50;100.00;63355.56;5021517;28;20061;-80
2022/07/20 03:18:13;;;;;;;9.35;4.20;;;;;;;-141.50;100.00;63355.56;5025429;28;20046;-80
2022/07/20 03:20:40;;;;;;;11.80;4.65;;;;;;;-141.50;100.00;63355.56;5037033;28;20057;-80
2022/07/20 03:23:07;;;;;;;12.48;4.22;;;;;;;-141.50;100.00;63355.56;5022162;28;20054;-79
2022/07/20 03:25:33;;;;;;;11.05;4.43;;;;;;;-141.50;100.00;63355.56;5022411;28;20121;-80
2022/07/20 03:28:00;;;;;;;9.10;4.03;;;;;;;-141.50;100.00;63355.56;5021103;28;20065;-80
2022/07/20 03:30:28;;;;;;;15.73;4.43;;;;;;;-141.50;100.00;63355.56;5023607;28;20042;-79
2022/07/20 03:32:54;;;;;;;9.45;4.35;;;;;;;-141.50;100.00;63355.56;5022706;28;20054;-79
2022/07/20 03:35:22;;;;;;;7.55;4.03;;;;;;;-141.50;100.00;63355.56;5019763;28;20442;-79
2022/07/20 03:37:49;;;;;;;11.38;4.85;;;;;;;-141.50;100.00;63355.56;5022979;28;20187;-79
2022/07/20 03:40:15;;;;;;;9.88;4.30;;;;;;;-141.50;100.00;63355.56;5026408;28;20101;-78
2022/07/20 03:42:42;;;;;;;8.07;4.72;;;;;;;-141.50;100.00;63355.56;5014875;28;20510;-78
2022/07/20 03:45:09;;;;;;;11.95;4.78;;;;;;;-141.50;100.00;63355.56;5019804;28;20053;-78
2022/07/20 03:47:36;;;;;;;13.35;4.55;;;;;;;-141.50;100.00;63355.56;5015128;28;20596;-77
2022/07/20 03:50:03;;;;;;;14.98;4.82;;;;;;;-141.50;100.00;63355.56;5023548;28;20057;-79
2022/07/20 03:52:30;;;;;;;14.00;4.60;;;;;;;-141.50;100.00;63355.56;5020541;28;20191;-78
2022/07/20 03:54:57;;;;;;;12.15;5.10;;;;;;;-141.50;100.00;63355.56;5014745;28;20515;-78
2022/07/20 03:57:24;;;;;;;9.85;4.63;;;;;;;-141.50;100.00;63355.56;5012305;28;20046;-78
2022/07/20 03:59:50;;;;;;;16.92;4.43;;;;;;;-141.50;100.00;63355.56;5013058;28;20065;-76
2022/07/20 04:02:17;;;;;;;13.00;4.78;;;;;;;-141.50;100.00;63355.56;5011498;28;20073;-78
2022/07/20 04:04:46;;;;;;;10.95;4.38;;;;;;;-141.50;100.00;63355.56;5011404;28;20050;-78
2022/07/20 04:07:12;;;;;;;14.20;4.10;;;;;;;-141.50;100.00;63355.56;5011259;28;20049;-77
2022/07/20 04:09:46;;;;;;;11.63;4.53;;;;;;;-141.50;100.00;63355.56;5010375;28;20065;-79
2022/07/20 04:12:18;;;;;;;9.73;4.20;;;;;;;-141.50;100.00;63355.56;5010299;28;20053;-78
2022/07/20 04:14:46;;;;;;;12.75;4.53;;;;;;;-141.50;100.00;63355.56;5011600;28;20160;-78
2022/07/20 04:17:13;;;;;;;10.93;4.03;;;;;;;-141.50;100.00;63355.56;5011685;28;20451;-77
2022/07/20 04:19:39;;;;;;;12.35;4.40;;;;;;;-141.50;100.00;63355.56;5027239;28;20046;-77
2022/07/20 04:22:06;;;;;;;11.23;4.45;;;;;;;-141.50;100.00;63355.56;5011326;28;20743;-78
2022/07/20 04:24:35;;;;;;;10.48;4.22;;;;;;;-141.50;100.00;63355.56;5012828;28;20100;-77
2022/07/20 04:27:02;;;;;;;8.88;4.07;;;;;;;-141.50;100.00;63355.56;5017448;28;20049;-78
2022/07/20 04:29:29;;;;;;;13.10;4.22;;;;;;;-141.50;100.00;63355.56;5014690;28;20132;-77
2022/07/20 04:31:56;;;;;;;15.95;4.55;;;;;;;-141.50;100.00;63355.56;5010140;28;20100;-78
2022/07/20 04:34:23;;;;;;;11.05;4.25;;;;;;;-141.50;100.00;63355.56;5011031;28;20169;-78
2022/07/20 04:36:50;;;;;;;13.30;3.92;;;;;;;-141.50;100.00;63355.56;5012325;28;20049;-76
2022/07/20 04:39:16;;;;;;;14.73;4.35;;;;;;;-141.50;100.00;63355.56;5000500;28;20081;-78
2022/07/20 04:41:43;;;;;;;10.73;4.32;;;;;;;-141.50;100.00;63355.56;5010907;28;20053;-76
2022/07/20 04:44:09;;;;;;;9.60;4.35;;;;;;;-141.50;100.00;63355.56;5011718;28;20053;-77
2022/07/20 04:46:36;;;;;;;10.93;4.30;;;;;;;-141.50;100.00;63355.56;5013777;28;20053;-78
2022/07/20 04:49:04;;;;;;;18.92;3.90;;;;;;;-141.50;100.00;63355.56;5011816;28;20050;-77
2022/07/20 04:51:31;;;;;;;12.48;4.38;;;;;;;-141.50;100.00;63355.56;4995917;28;20046;-76
2022/07/20 04:53:57;;;;;;;14.30;4.47;;;;;;;-141.50;100.00;63355.56;4995284;28;20089;-77
2022/07/20 04:56:24;;;;;;;13.82;4.32;;;;;;;-141.50;100.00;63355.56;4994280;28;20050;-78
2022/07/20 04:58:52;;;;;;;11.18;4.10;;;;;;;-141.50;100.00;63355.56;5010377;28;20053;-78
2022/07/20 05:01:20;;;;;;;8.68;3.75;;;;;;;-141.50;100.00;63355.56;5011567;28;20129;-76
2022/07/20 05:03:47;;;;;;;9.52;4.03;;;;;;;-141.50;100.00;63355.56;5017397;28;20053;-79
2022/07/20 05:06:14;;;;;;;10.35;4.30;;;;;;;-141.50;100.00;63355.56;5022884;28;20148;-79
2022/07/20 05:08:41;;;;;;;9.38;4.13;;;;;;;-141.50;100.00;63355.56;5020973;28;20065;-78
2022/07/20 05:11:08;;;;;;;7.18;3.72;;;;;;;-141.50;100.00;63355.56;5022846;28;20094;-80
2022/07/20 05:13:37;;;;;;;8.30;3.85;;;;;;;-141.50;100.00;63355.56;5026000;28;20049;-78
2022/07/20 05:16:05;;;;;;;6.45;4.00;;;;;;;-141.50;100.00;63355.56;5020586;28;20057;-79
2022/07/20 05:18:32;;;;;;;8.70;3.97;;;;;;;-141.50;100.00;63355.56;5019708;28;20108;-80
2022/07/20 05:20:59;;;;;;;8.63;3.97;;;;;;;-141.50;100.00;63355.56;5025206;28;20056;-79
2022/07/20 05:23:26;;;;;;;10.32;3.63;;;;;;;-141.50;100.00;63355.56;5030070;28;20053;-81
2022/07/20 05:25:52;;;;;;;9.70;3.70;;;;;;;-141.50;100.00;63355.56;5030785;28;20056;-80
2022/07/20 05:28:20;;;;;;;10.23;3.60;;;;;;;-141.50;100.00;63355.56;5016333;28;20030;-81
2022/07/20 05:30:49;;;;;;;8.02;3.67;;;;;;;-141.50;100.00;63355.56;5023201;28;20082;-78
2022/07/20 05:33:16;;;;;;;12.00;3.67;;;;;;;-141.50;100.00;63355.56;5012095;28;20080;-79
2022/07/20 05:35:44;;;;;;;7.47;3.40;;;;;;;-141.50;100.00;63355.56;5016824;28;20080;-80
2022/07/20 05:38:11;;;;;;;9.82;3.42;;;;;;;-141.50;100.00;63355.56;5002134;28;20049;-80
2022/07/20 05:40:37;;;;;;;12.70;3.50;;;;;;;-141.50;100.00;63355.56;5017024;28;20046;-79
2022/07/20 05:43:04;;;;;;;8.18;3.33;;;;;;;-141.50;100.00;63355.56;4995323;28;20084;-80
2022/07/20 05:45:30;;;;;;;8.98;3.30;;;;;;;-141.50;100.00;63355.56;5013173;28;20054;-79
2022/07/20 05:47:57;;;;;;;11.88;3.47;;;;;;;-141.50;100.00;63355.56;5011582;28;20112;-78
2022/07/20 05:50:24;;;;;;;10.23;3.00;;;;;;;-141.50;100.00;63355.56;4993941;28;20100;-77
2022/07/20 05:52:50;;;;;;;9.85;2.85;;;;;;;-141.50;100.00;63355.56;5009813;28;20475;-78
2022/07/20 05:55:17;;;;;;;14.45;3.17;;;;;;;-141.50;100.00;63355.56;5008948;28;20092;-78
2022/07/20 05:57:44;;;;;;;10.93;3.65;;;;;;;-141.50;100.00;63355.56;5009633;28;20050;-79
2022/07/20 06:00:11;;;;;;;8.85;3.13;;;;;;;-141.50;100.00;63355.56;4995077;28;20057;-79
2022/07/20 06:02:38;;;;;;;7.57;3.00;;;;;;;-141.50;100.00;63355.56;4996324;28;20400;-80
2022/07/20 06:05:05;;;;;;;10.32;2.70;;;;;;;-141.50;100.00;63355.56;5012951;28;20054;-79
2022/07/20 06:07:32;;;;;;;10.60;2.92;;;;;;;-141.50;100.00;63355.56;5011344;28;20064;-80
2022/07/20 06:09:58;;;;;;;12.60;3.47;;;;;;;-141.50;100.00;63355.56;5013763;28;20125;-80
2022/07/20 06:12:25;;;;;;;8.68;2.85;;;;;;;-141.50;100.00;63355.56;5013213;28;20046;-80
2022/07/20 06:14:51;;;;;;;10.20;2.60;;;;;;;-141.50;100.00;63355.56;5012550;28;20068;-80
2022/07/20 06:17:18;;;;;;;10.05;2.97;;;;;;;-141.50;100.00;63355.56;5014344;28;20054;-79
2022/07/20 06:19:45;;;;;;;7.00;2.80;;;;;;;-141.50;100.00;63355.56;4996810;28;20108;-80
2022/07/20 06:22:11;;;;;;;12.55;3.10;;;;;;;-141.50;100.00;63355.56;5014770;28;20046;-80
2022/07/20 06:24:38;;;;;;;14.85;3.10;;;;;;;-141.50;100.00;63355.56;5013746;28;20181;-81
2022/07/20 06:27:22;;;;;;;7.70;2.95;;;;;;;-141.50;100.00;63355.56;5017879;28;20065;-80
2022/07/20 06:29:49;;;;;;;7.00;2.63;;;;;;;-141.50;100.00;63355.56;5019682;28;20053;-79
2022/07/20 06:32:15;;;;;;;7.65;2.97;;;;;;;-141.50;100.00;63355.56;5017578;28;20070;-80
2022/07/20 06:34:43;;;;;;;11.70;3.13;;;;;;;-141.50;100.00;63355.56;5017073;28;20054;-80
2022/07/20 06:37:10;;;;;;;8.52;3.03;;;;;;;-141.50;100.00;63355.56;5012958;28;20061;-80
2022/07/20 06:39:36;;;;;;;10.27;2.95;;;;;;;-141.50;100.00;63355.56;5022828;28;20129;-80
2022/07/20 06:42:10;;;;;;;10.48;2.80;;;;;;;-141.50;100.00;63355.56;5010762;28;20046;-79
2022/07/20 06:44:37;;;;;;;8.85;2.80;;;;;;;-141.50;100.00;63355.56;5015604;28;20168;-79
2022/07/20 06:47:04;;;;;;;6.38;2.90;;;;;;;-141.50;100.00;63355.56;5018282;28;20481;-80
2022/07/20 06:49:31;;;;;;;10.85;2.83;;;;;;;-141.50;100.00;63355.56;5017658;28;20053;-80
2022/07/20 06:51:58;;;;;;;10.68;2.80;;;;;;;-141.50;100.00;63355.56;5021119;28;20045;-79
2022/07/20 06:54:25;;;;;;;12.05;2.80;;;;;;;-141.50;100.00;63355.56;5022975;28;20050;-80
2022/07/20 06:56:53;;;;;;;9.07;3.13;;;;;;;-141.50;100.00;63355.56;5023121;28;20077;-80
2022/07/20 06:59:20;;;;;;;11.55;3.08;;;;;;;-141.50;100.00;63355.56;5022559;28;20050;-79
2022/07/20 07:01:47;;;;;;;14.70;2.95;;;;;;;-141.50;100.00;63355.56;5020998;28;20050;-78
2022/07/20 07:04:14;;;;;;;14.77;2.75;;;;;;;-141.50;100.00;63355.56;5023294;28;20057;-80
2022/07/20 07:06:41;;;;;;;11.82;3.30;;;;;;;-141.50;100.00;63355.56;5023143;28;20100;-80
2022/07/20 07:09:09;;;;;;;11.05;3.25;;;;;;;-141.50;100.00;63355.56;5021209;28;20053;-80
2022/07/20 07:11:36;;;;;;;7.20;2.47;;;;;;;-141.50;100.00;63355.56;5014303;28;20241;-79
2022/07/20 07:14:04;;;;;;;10.10;3.20;;;;;;;-141.50;100.00;63355.56;5011386;28;20085;-79
2022/07/20 07:16:31;;;;;;;12.05;2.78;;;;;;;-141.50;100.00;63355.56;5011622;28;20177;-78
2022/07/20 07:18:57;;;;;;;13.13;2.60;;;;;;;-141.50;100.00;63355.56;5011970;28;20085;-79
2022/07/20 07:21:24;;;;;;;9.05;2.67;;;;;;;-141.50;100.00;63355.56;5012146;28;20073;-79
2022/07/20 07:23:51;;;;;;;7.88;2.70;;;;;;;-141.50;100.00;63355.56;5011663;28;20081;-79
2022/07/20 07:26:19;;;;;;;14.90;5.88;;;;;;;-141.50;100.00;63355.56;5011469;28;20479;-80
2022/07/20 07:28:46;;;;;;;9.45;3.50;;;;;;;-141.50;100.00;63355.56;5011851;28;20057;-79
2022/07/20 07:31:15;;;;;;;6.45;2.72;;;;;;;-141.50;100.00;63355.56;5010882;28;20069;-79
2022/07/20 07:33:41;;;;;;;14.43;2.90;;;;;;;-141.50;100.00;63355.56;5011439;28;20081;-79
2022/07/20 07:36:08;;;;;;;6.20;2.38;;;;;;;-141.50;100.00;63355.56;5017526;28;20045;-79
2022/07/20 07:38:34;;;;;;;6.78;2.42;;;;;;;-141.50;100.00;63355.56;5021743;28;20216;-79
2022/07/20 07:41:01;;;;;;;6.95;2.30;;;;;;;-141.50;100.00;63355.56;5016219;28;20128;-79
2022/07/20 07:43:28;;;;;;;7.90;2.40;;;;;;;-141.50;100.00;63355.56;5011570;28;20096;-79
2022/07/20 07:45:55;;;;;;;10.30;2.58;;;;;;;-141.50;100.00;63355.56;4994439;28;20549;-79
2022/07/20 07:48:21;;;;;;;6.75;2.67;;;;;;;-141.50;100.00;63355.56;5012088;28;20054;-79
2022/07/20 07:50:48;;;;;;;7.07;2.50;;;;;;;-141.50;100.00;63355.56;5012559;28;20085;-78
2022/07/20 07:53:14;;;;;;;9.40;2.35;;;;;;;-141.50;100.00;63355.56;5013244;28;20467;-79
2022/07/20 07:55:42;;;;;;;10.20;2.70;;;;;;;-141.50;100.00;63355.56;5015124;28;20100;-79
2022/07/20 07:58:09;;;;;;;8.32;4.03;;;;;;;-141.50;100.00;63355.56;5012277;28;20093;-78
2022/07/20 08:00:37;;;;;;;11.90;3.28;;;;;;;-141.50;100.00;63355.56;5013567;28;20129;-79
2022/07/20 08:03:04;;;;;;;9.02;2.60;;;;;;;-141.50;100.00;63355.56;5012976;28;20048;-78
2022/07/20 08:05:35;;;;;;;14.13;2.65;;;;;;;-141.50;100.00;63355.56;5012858;28;20085;-79
2022/07/20 08:08:10;;;;;;;6.90;2.30;;;;;;;-141.50;100.00;63355.56;5012131;28;20518;-79
2022/07/20 08:10:38;;;;;;;5.35;2.50;;;;;;;-141.50;100.00;63355.56;5010936;28;20584;-78
2022/07/20 08:13:06;;;;;;;5.35;2.13;;;;;;;-141.50;100.00;63355.56;5011633;28;20553;-79
2022/07/20 08:15:32;;;;;;;10.68;2.33;;;;;;;-141.50;100.00;63355.56;4994225;28;20514;-78
2022/07/20 08:18:00;;;;;;;3.97;2.08;;;;;;;-141.50;100.00;63355.56;5011248;28;20050;-79
2022/07/20 08:20:26;;;;;;;7.93;2.60;;;;;;;-141.50;100.00;63355.56;5010748;28;20169;-78
2022/07/20 08:22:53;;;;;;;13.93;2.50;;;;;;;-141.50;100.00;63355.56;5009508;28;20085;-79
2022/07/20 08:25:21;;;;;;;15.30;2.10;;;;;;;-141.50;100.00;63355.56;5017989;28;20157;-80
2022/07/20 08:27:49;;;;;;;6.30;2.10;;;;;;;-141.50;100.00;63355.56;5003157;28;20084;-79
2022/07/20 08:30:17;;;;;;;10.65;2.38;;;;;;;-141.50;100.00;63355.56;5019682;28;20050;-80
2022/07/20 08:33:03;;;;;;;9.15;2.25;;;;;;;-141.50;100.00;63355.56;5015251;28;20050;-79
2022/07/20 08:35:30;;;;;;;9.35;2.33;;;;;;;-141.50;100.00;63355.56;5010899;28;20546;-78
2022/07/20 08:37:57;;;;;;;8.63;2.22;;;;;;;-141.50;100.00;63355.56;5025793;28;20081;-79
2022/07/20 08:40:25;;;;;;;6.25;2.20;;;;;;;-141.50;100.00;63355.56;5031529;28;20061;-78
2022/07/20 08:42:52;;;;;;;5.10;2.13;;;;;;;-141.50;100.00;63355.56;5022495;28;20078;-78
2022/07/20 08:45:18;;;;;;;7.88;2.28;;;;;;;-141.50;100.00;63355.56;5019370;28;20491;-79
2022/07/20 08:47:46;;;;;;;7.10;2.20;;;;;;;-141.50;100.00;63355.56;5012808;28;20081;-79
2022/07/20 08:50:12;;;;;;;4.45;1.85;;;;;;;-141.50;100.00;63355.56;5011707;28;20081;-79
2022/07/20 08:52:39;;;;;;;9.85;2.25;;;;;;;-141.50;100.00;63355.56;5011397;28;20046;-79
2022/07/20 08:55:09;;;;;;;7.03;2.10;;;;;;;-141.50;100.00;63355.56;5011521;28;20050;-79
2022/07/20 08:57:36;;;;;;;8.80;2.33;;;;;;;-141.50;100.00;63355.56;5012916;28;20053;-79
2022/07/20 09:00:05;;;;;;;5.82;2.60;;;;;;;-141.50;100.00;63355.56;5012272;28;20392;-79
2022/07/20 09:02:57;;;;;;;9.32;2.25;;;;;;;-141.50;100.00;63355.56;5011054;28;20049;-79
2022/07/20 09:05:25;;;;;;;11.77;2.33;;;;;;;-141.50;100.00;63355.56;5012042;28;20179;-79
2022/07/20 09:07:55;;;;;;;7.45;2.63;;;;;;;-141.50;100.00;63355.56;5011394;28;20664;-79
2022/07/20 09:10:23;;;;;;;9.60;2.15;;;;;;;-141.50;100.00;63355.56;5012525;28;20118;-79
2022/07/20 09:12:55;;;;;;;18.02;2.47;;;;;;;-141.50;100.00;63355.56;5009428;28;20103;-78
2022/07/20 09:15:29;;;;;;;7.00;2.42;;;;;;;-141.50;100.00;63355.56;5011467;28;20075;-79
2022/07/20 09:18:26;;;;;;;14.45;2.70;;;;;;;-141.50;100.00;63355.56;4994735;28;20069;-78
2022/07/20 09:20:55;;;;;;;12.00;2.47;;;;;;;-141.50;100.00;63355.56;5009301;28;20116;-79
2022/07/20 09:23:29;;;;;;;8.63;2.40;;;;;;;-141.50;100.00;63355.56;5009423;28;20073;-78
2022/07/20 09:26:04;;;;;;;8.27;2.25;;;;;;;-141.50;100.00;63355.56;5008528;28;20084;-79
2022/07/20 09:28:37;;;;;;;11.07;2.53;;;;;;;-141.50;100.00;63355.56;5009251;28;20152;-78
2022/07/20 09:31:11;;;;;;;7.45;2.35;;;;;;;-141.50;100.00;63355.56;5008264;28;20559;-79
2022/07/20 09:33:39;;;;;;;10.20;2.58;;;;;;;-141.50;100.00;63355.56;5009688;28;20076;-78
2022/07/20 09:36:07;;;;;;;14.68;2.67;;;;;;;-141.50;100.00;63355.56;5009662;28;20054;-79
2022/07/20 09:38:39;;;;;;;9.20;2.22;;;;;;;-141.50;100.00;63355.56;5012678;28;20054;-78
2022/07/20 09:41:22;;;;;;;8.40;2.72;;;;;;;-141.50;100.00;63355.56;5011265;28;20053;-78
2022/07/20 09:43:48;;;;;;;5.85;2.10;;;;;;;-141.50;100.00;63355.56;5008461;28;20081;-78
2022/07/20 09:46:18;;;;;;;8.73;2.30;;;;;;;-141.50;100.00;63355.56;5008667;28;20128;-79
2022/07/20 09:48:49;;;;;;;11.93;2.35;;;;;;;-141.50;100.00;63355.56;5009615;28;20164;-78
2022/07/20 09:51:31;;;;;;;9.90;2.55;;;;;;;-141.50;100.00;63355.56;5009100;28;20482;-77
2022/07/20 09:54:02;;;;;;;11.35;2.50;;;;;;;-141.50;100.00;63355.56;5021560;28;20058;-80
2022/07/20 09:56:29;;;;;;;14.13;2.67;;;;;;;-141.50;100.00;63355.56;5016861;28;20050;-79
2022/07/20 09:58:58;;;;;;;10.57;2.58;;;;;;;-141.50;100.00;63355.56;5009123;28;20141;-79
2022/07/20 10:01:27;;;;;;;9.57;2.35;;;;;;;-141.50;100.00;63355.56;5009300;28;20403;-79
2022/07/20 10:03:56;;;;;;;5.80;2.50;;;;;;;-141.50;100.00;63355.56;5009359;28;20053;-79
2022/07/20 10:06:25;;;;;;;7.50;2.83;;;;;;;-141.50;100.00;63355.56;5009191;28;20145;-78
2022/07/20 10:08:59;;;;;;;13.95;2.90;;;;;;;-141.50;100.00;63355.56;5008489;28;20061;-78
2022/07/20 10:11:26;;;;;;;11.98;2.50;;;;;;;-141.50;100.00;63355.56;5009553;28;20073;-80
2022/07/20 10:13:55;;;;;;;12.10;2.78;;;;;;;-141.50;100.00;63355.56;5012874;28;20075;-79
2022/07/20 10:16:52;;;;;;;9.10;2.67;;;;;;;-141.50;100.00;63355.56;5016591;28;20104;-80
2022/07/20 10:19:39;;;;;;;9.98;2.78;;;;;;;-141.50;100.00;63355.56;5011966;28;20050;-79
2022/07/20 10:22:09;;;;;;;12.43;2.88;;;;;;;-141.50;100.00;63355.56;5011087;28;20110;-79
2022/07/20 10:24:38;;;;;;;12.93;2.72;;;;;;;-141.50;100.00;63355.56;5009540;28;20066;-79
2022/07/20 10:27:05;;;;;;;7.07;2.70;;;;;;;-141.50;100.00;63355.56;5009220;28;20046;-79
2022/07/20 10:29:33;;;;;;;10.20;2.42;;;;;;;-141.50;100.00;63355.56;5012419;28;20100;-79
2022/07/20 10:32:20;;;;;;;10.02;2.85;;;;;;;-141.50;100.00;63355.56;5011429;28;20073;-79
2022/07/20 10:34:58;;;;;;;10.98;3.15;;;;;;;-141.50;100.00;63355.56;5011420;28;20053;-78
2022/07/20 10:37:28;;;;;;;7.82;2.85;;;;;;;-141.50;100.00;63355.56;5012895;28;20054;-80
2022/07/20 10:39:57;;;;;;;8.35;2.65;;;;;;;-141.50;100.00;63355.56;5001781;28;20058;-79
2022/07/20 10:42:32;;;;;;;6.80;2.60;;;;;;;-141.50;100.00;63355.56;5008076;28;20499;-79
2022/07/20 10:45:19;;;;;;;11.30;3.00;;;;;;;-141.50;100.00;63355.56;5009258;28;20511;-79
2022/07/20 10:47:50;;;;;;;12.52;2.70;;;;;;;-141.50;100.00;63355.56;5009646;28;20181;-79
2022/07/20 10:50:18;;;;;;;7.13;2.60;;;;;;;-141.50;100.00;63355.56;5009015;28;20080;-78
2022/07/20 10:52:48;;;;;;;5.20;2.60;;;;;;;-141.50;100.00;63355.56;4991019;28;20061;-79
2022/07/20 10:55:44;;;;;;;7.85;2.90;;;;;;;-141.50;100.00;63355.56;5007823;28;20089;-79
2022/07/20 10:58:15;;;;;;;7.82;2.92;;;;;;;-141.50;100.00;63355.56;5000411;28;20364;-79
2022/07/20 11:00:53;;;;;;;5.88;2.70;;;;;;;-141.50;100.00;63355.56;4991337;28;20109;-77
2022/07/20 11:03:29;;;;;;;15.68;2.95;;;;;;;-141.50;100.00;63355.56;5009172;28;20046;-80
2022/07/20 11:06:18;;;;;;;7.38;2.97;;;;;;;-141.50;100.00;63355.56;5008822;28;20081;-79
2022/07/20 11:08:57;;;;;;;9.32;2.80;;;;;;;-141.50;100.00;63355.56;5008118;28;20129;-79
2022/07/20 11:11:26;;;;;;;9.60;2.90;;;;;;;-141.50;100.00;63355.56;4988372;28;20058;-79
2022/07/20 11:13:53;;;;;;;9.40;2.90;;;;;;;-141.50;100.00;63355.56;5007215;28;20514;-79
2022/07/20 11:16:24;;;;;;;5.75;2.67;;;;;;;-141.50;100.00;63355.56;5009076;28;20049;-78